Time;durP1;ratioP1;P1;durP2;ratioP2;P2;SDS_P1;SDS_P2;PMS_P1;PMS_P2;Temp;Humidity;BMP_temperature;BMP_pressure;BME280_temperature;BME280_humidity;BME280_pressure;Samples;Min_cycle;Max_cycle;Signal;HPM_P1;HPM_P2
2022/06/16 00:02:05;;;;;;;7.25;3.17;;;18.90;99.90;;;;;;5068051;28;20199;-60
2022/06/16 00:04:32;;;;;;;4.25;2.83;;;18.90;99.90;;;;;;5073029;28;20577;-59
2022/06/16 00:07:00;;;;;;;5.90;2.70;;;18.70;99.90;;;;;;5083891;28;20758;-61
2022/06/16 00:09:27;;;;;;;5.28;2.42;;;18.10;1.00;;;;;;5082484;28;20237;-60
2022/06/16 00:11:54;;;;;;;3.92;2.60;;;18.50;99.90;;;;;;5084921;28;20221;-61
2022/06/16 00:14:27;;;;;;;4.30;3.15;;;17.80;1.00;;;;;;5084687;28;20217;-60
2022/06/16 00:16:55;;;;;;;5.75;3.05;;;18.10;99.90;;;;;;5086313;28;20328;-60
2022/06/16 00:19:22;;;;;;;6.13;2.75;;;18.00;1.00;;;;;;5084059;28;20205;-61
2022/06/16 00:21:49;;;;;;;7.85;3.97;;;18.10;99.90;;;;;;5049034;28;20202;-60
2022/06/16 00:24:16;;;;;;;7.95;4.22;;;17.50;1.00;;;;;;5050091;28;20217;-60
2022/06/16 00:26:44;;;;;;;3.33;2.50;;;17.50;99.90;;;;;;5084453;28;20611;-61
2022/06/16 00:29:11;;;;;;;4.90;2.90;;;18.10;1.00;;;;;;5085199;28;20183;-62
2022/06/16 00:31:38;;;;;;;3.97;2.75;;;18.10;1.00;;;;;;5083797;28;20198;-61
2022/06/16 00:34:05;;;;;;;4.10;3.20;;;17.70;1.00;;;;;;5062737;28;20254;-61
2022/06/16 00:36:34;;;;;;;8.85;3.25;;;17.70;1.00;;;;;;5084095;28;20237;-60
2022/06/16 00:39:02;;;;;;;6.40;2.85;;;17.70;1.00;;;;;;5081690;28;20287;-59
2022/06/16 00:41:29;;;;;;;8.83;3.13;;;17.90;99.90;;;;;;5083906;28;20808;-59
2022/06/16 00:44:01;;;;;;;3.50;2.55;;;17.90;1.00;;;;;;5064204;28;20230;-59
2022/06/16 00:46:29;;;;;;;2.00;1.80;;;18.20;1.00;;;;;;5083025;28;20187;-59
2022/06/16 00:49:00;;;;;;;6.18;3.00;;;18.50;99.90;;;;;;5082392;28;20660;-60
2022/06/16 00:51:43;;;;;;;5.82;2.92;;;18.40;1.00;;;;;;5083313;28;21015;-60
2022/06/16 00:54:23;;;;;;;4.40;2.35;;;18.00;99.90;;;;;;5073008;28;20198;-59
2022/06/16 00:56:53;;;;;;;5.03;2.38;;;18.10;1.00;;;;;;5064697;28;20217;-60
2022/06/16 00:59:22;;;;;;;5.10;3.13;;;18.10;99.90;;;;;;5083400;28;20206;-59
2022/06/16 01:01:49;;;;;;;3.97;2.42;;;18.10;99.90;;;;;;5047312;28;20202;-60
2022/06/16 01:07:08;;;;;;;2.35;1.92;;;17.90;1.00;;;;;;5082124;28;20194;-61
2022/06/16 01:09:37;;;;;;;3.30;2.35;;;18.20;1.00;;;;;;5063525;28;20241;-60
2022/06/16 01:15:07;;;;;;;8.10;2.95;;;17.90;1.00;;;;;;5081772;28;20191;-60
2022/06/16 01:17:53;;;;;;;6.28;2.60;;;17.90;1.00;;;;;;5048488;28;20280;-60
2022/06/16 01:20:29;;;;;;;3.50;2.45;;;18.10;1.00;;;;;;5080672;28;20600;-61
2022/06/16 01:23:17;;;;;;;4.28;2.60;;;17.70;99.90;;;;;;5084140;28;20218;-61
2022/06/16 01:26:08;;;;;;;4.95;2.72;;;17.70;99.90;;;;;;5069558;28;20190;-59
2022/06/16 01:29:13;;;;;;;6.90;2.87;;;17.20;1.00;;;;;;5067154;28;20197;-60
2022/06/16 01:31:48;;;;;;;7.43;3.75;;;16.90;1.00;;;;;;5064722;28;20186;-59
2022/06/16 01:34:43;;;;;;;6.03;3.90;;;17.40;1.00;;;;;;5084063;28;20207;-60
2022/06/16 01:37:29;;;;;;;7.37;2.80;;;17.60;99.90;;;;;;5063390;28;20203;-60
2022/06/16 01:40:12;;;;;;;3.28;2.20;;;17.90;99.90;;;;;;5080859;28;20207;-59
2022/06/16 01:43:00;;;;;;;5.20;2.67;;;18.00;99.90;;;;;;5061259;28;20198;-60
2022/06/16 01:45:37;;;;;;;5.80;2.75;;;17.90;99.90;;;;;;5069113;28;20274;-59
2022/06/16 01:48:09;;;;;;;7.05;2.97;;;17.70;99.90;;;;;;5063808;28;20262;-59
2022/06/16 01:51:00;;;;;;;3.67;2.73;;;16.90;99.90;;;;;;5068933;28;20281;-58
2022/06/16 01:53:46;;;;;;;6.70;3.23;;;17.20;99.90;;;;;;5066585;28;20310;-59
2022/06/16 01:56:40;;;;;;;6.57;3.00;;;17.30;99.90;;;;;;5084340;28;20198;-59
2022/06/16 01:59:18;;;;;;;6.10;3.40;;;17.60;99.90;;;;;;5063322;28;20654;-58
2022/06/16 02:01:50;;;;;;;4.60;2.55;;;17.30;99.90;;;;;;5052970;28;20203;-60
2022/06/16 02:04:28;;;;;;;4.95;3.42;;;17.50;99.90;;;;;;5061990;28;20218;-59
2022/06/16 02:07:00;;;;;;;6.72;3.63;;;17.80;99.90;;;;;;5079175;28;20297;-60
2022/06/16 02:09:32;;;;;;;4.40;2.95;;;17.90;99.90;;;;;;5067657;28;20233;-59
2022/06/16 02:12:03;;;;;;;5.05;3.25;;;17.90;99.90;;;;;;5064084;28;20280;-60
2022/06/16 02:14:45;;;;;;;6.35;2.83;;;18.00;99.90;;;;;;5062257;28;20198;-59
2022/06/16 02:17:30;;;;;;;4.20;2.85;;;17.90;99.90;;;;;;5070885;28;20288;-60
2022/06/16 02:19:57;;;;;;;5.55;2.90;;;17.60;99.90;;;;;;5083774;28;20233;-60
2022/06/16 02:22:24;;;;;;;5.80;3.30;;;17.40;99.90;;;;;;5065475;28;20202;-60
2022/06/16 02:24:52;;;;;;;7.80;3.25;;;17.00;99.90;;;;;;5074439;28;20218;-59
2022/06/16 02:27:20;;;;;;;3.83;3.20;;;16.80;99.90;;;;;;5068271;28;20194;-60
2022/06/16 02:29:50;;;;;;;4.73;3.30;;;16.70;99.90;;;;;;5064307;28;20194;-60
2022/06/16 02:32:46;;;;;;;3.58;3.08;;;16.60;99.90;;;;;;5066854;28;20679;-60
2022/06/16 02:35:39;;;;;;;5.00;3.20;;;16.60;99.90;;;;;;5064095;28;20202;-61
2022/06/16 02:38:28;;;;;;;6.67;3.50;;;17.00;99.90;;;;;;5078368;28;20218;-60
2022/06/16 02:41:18;;;;;;;7.33;3.60;;;16.90;99.90;;;;;;5063704;28;20345;-61
2022/06/16 02:43:59;;;;;;;4.47;3.53;;;17.00;99.90;;;;;;5079349;28;20211;-60
2022/06/16 02:46:41;;;;;;;5.60;4.00;;;17.00;99.90;;;;;;5081534;28;20519;-60
2022/06/16 02:49:26;;;;;;;4.53;3.30;;;17.00;99.90;;;;;;5069811;28;20191;-59
2022/06/16 02:52:09;;;;;;;8.23;3.53;;;16.90;99.90;;;;;;5067604;28;20638;-59
2022/06/16 02:55:00;;;;;;;7.43;3.17;;;16.90;99.90;;;;;;5065102;28;20190;-59
2022/06/16 02:57:50;;;;;;;4.75;3.35;;;16.80;99.90;;;;;;5050611;28;20218;-59
2022/06/16 03:00:41;;;;;;;4.67;3.50;;;16.60;99.90;;;;;;5050826;28;20199;-64
2022/06/16 03:03:18;;;;;;;5.83;3.60;;;16.60;99.90;;;;;;5082067;28;20224;-60
2022/06/16 03:05:53;;;;;;;6.73;3.63;;;16.50;99.90;;;;;;5070977;28;20214;-60
2022/06/16 03:08:25;;;;;;;6.80;3.40;;;16.50;99.90;;;;;;5062188;28;20754;-60
2022/06/16 03:10:58;;;;;;;8.93;6.22;;;17.20;99.90;;;;;;5060634;28;20203;-60
2022/06/16 03:13:29;;;;;;;11.95;9.00;;;17.80;99.90;;;;;;5061009;28;20210;-60
2022/06/16 03:15:58;;;;;;;12.15;6.95;;;18.10;99.90;;;;;;5072246;28;20199;-60
2022/06/16 03:18:28;;;;;;;5.57;3.35;;;18.30;99.90;;;;;;5063551;28;20199;-60
2022/06/16 03:20:55;;;;;;;10.27;7.60;;;18.10;99.90;;;;;;5062046;28;20272;-61
2022/06/16 03:23:23;;;;;;;9.55;6.20;;;17.80;99.90;;;;;;5062181;28;20211;-60
2022/06/16 03:25:51;;;;;;;7.63;5.75;;;17.80;99.90;;;;;;5064605;28;20260;-60
2022/06/16 03:28:19;;;;;;;7.78;5.65;;;17.70;99.90;;;;;;5068099;28;20194;-60
2022/06/16 03:30:46;;;;;;;9.82;6.25;;;18.10;99.90;;;;;;5050535;28;20200;-60
2022/06/16 03:33:16;;;;;;;7.85;5.68;;;18.50;99.90;;;;;;5069167;28;20195;-59
2022/06/16 03:35:47;;;;;;;6.57;4.72;;;18.60;99.90;;;;;;5066141;28;20302;-59
2022/06/16 03:41:02;;;;;;;4.68;3.90;;;18.20;99.90;;;;;;5070130;28;20209;-60
2022/06/16 03:43:29;;;;;;;9.15;4.10;;;18.00;99.90;;;;;;5066760;28;20227;-61
2022/06/16 03:46:09;;;;;;;10.00;7.22;;;18.00;99.90;;;;;;5069545;28;20203;-59
2022/06/16 03:48:41;;;;;;;14.77;10.50;;;18.00;99.90;;;;;;5055120;28;20665;-60
2022/06/16 03:51:10;;;;;;;13.10;9.63;;;18.10;99.90;;;;;;5062955;28;20248;-60
2022/06/16 03:53:39;;;;;;;16.05;9.05;;;18.10;99.90;;;;;;5067404;28;20199;-60
2022/06/16 03:56:07;;;;;;;9.60;6.90;;;18.20;99.90;;;;;;5071697;28;20214;-60
2022/06/16 03:58:35;;;;;;;10.95;5.40;;;18.20;99.90;;;;;;5070665;28;20203;-60
2022/06/16 04:01:02;;;;;;;10.02;4.40;;;18.30;99.90;;;;;;5064923;28;20272;-59
2022/06/16 04:06:15;;;;;;;6.50;3.25;;;18.50;99.90;;;;;;5061529;28;20253;-62
2022/06/16 04:08:47;;;;;;;5.88;3.33;;;18.60;99.90;;;;;;5064543;28;20269;-61
2022/06/16 04:11:26;;;;;;;6.00;3.17;;;18.70;99.90;;;;;;5081472;28;20192;-63
2022/06/16 04:14:00;;;;;;;3.55;2.92;;;18.80;99.90;;;;;;5063294;28;20545;-61
2022/06/16 04:16:29;;;;;;;5.68;3.28;;;18.90;99.90;;;;;;5053638;28;20205;-60
2022/06/16 04:18:58;;;;;;;6.30;3.35;;;18.90;99.90;;;;;;5063362;28;20194;-61
2022/06/16 04:21:25;;;;;;;3.50;3.20;;;19.10;99.90;;;;;;5068147;28;20197;-59
2022/06/16 04:24:13;;;;;;;7.95;3.20;;;19.20;99.90;;;;;;5056941;28;20584;-60
2022/06/16 04:26:40;;;;;;;9.52;3.38;;;19.40;99.90;;;;;;5070415;28;20214;-60
2022/06/16 04:29:11;;;;;;;5.93;3.25;;;19.40;99.90;;;;;;5061302;28;20739;-59
2022/06/16 04:31:41;;;;;;;6.47;2.92;;;19.60;99.90;;;;;;5068163;28;20191;-61
2022/06/16 04:34:11;;;;;;;3.70;2.92;;;20.20;99.90;;;;;;5061906;28;20195;-60
2022/06/16 04:36:40;;;;;;;4.43;2.78;;;19.90;99.90;;;;;;5061172;28;20784;-60
2022/06/16 04:39:13;;;;;;;10.45;3.60;;;19.80;99.90;;;;;;5061101;28;20318;-59
2022/06/16 04:41:44;;;;;;;7.05;3.22;;;19.60;99.90;;;;;;5060563;28;20194;-60
2022/06/16 04:44:13;;;;;;;4.50;2.70;;;19.50;99.90;;;;;;5066291;28;20218;-59
2022/06/16 04:46:43;;;;;;;5.68;2.92;;;18.90;99.90;;;;;;5045632;28;20252;-60
2022/06/16 04:49:12;;;;;;;5.80;3.05;;;18.80;99.90;;;;;;5063477;28;20227;-59
2022/06/16 04:51:47;;;;;;;8.10;3.30;;;18.80;99.90;;;;;;5063795;28;20185;-60
2022/06/16 04:54:16;;;;;;;4.78;2.90;;;18.90;99.90;;;;;;5062425;28;20207;-58
2022/06/16 04:57:01;;;;;;;5.35;3.50;;;19.00;99.90;;;;;;5068531;28;20650;-59
2022/06/16 04:59:49;;;;;;;4.60;2.75;;;19.00;99.90;;;;;;5054371;28;20199;-59
2022/06/16 05:02:47;;;;;;;4.03;2.58;;;19.70;99.90;;;;;;5063327;28;20188;-58
2022/06/16 05:05:29;;;;;;;5.78;2.70;;;20.00;99.90;;;;;;5062602;28;20226;-59
2022/06/16 05:08:17;;;;;;;5.68;3.00;;;19.90;99.90;;;;;;5069380;28;20223;-59
2022/06/16 05:10:52;;;;;;;4.63;2.90;;;19.70;99.90;;;;;;5062695;28;20191;-59
2022/06/16 05:13:53;;;;;;;5.13;2.65;;;20.00;99.90;;;;;;5065984;28;20195;-59
2022/06/16 05:16:49;;;;;;;5.15;2.67;;;21.60;99.90;;;;;;5060117;28;20203;-59
2022/06/16 05:19:42;;;;;;;4.45;2.67;;;22.80;99.90;;;;;;5041945;28;20211;-60
2022/06/16 05:22:27;;;;;;;4.35;2.70;;;22.50;99.90;;;;;;5061245;28;20810;-60
2022/06/16 05:25:18;;;;;;;3.65;2.67;;;22.90;99.90;;;;;;5062641;28;20222;-59
2022/06/16 05:28:06;;;;;;;5.35;2.85;;;23.60;99.90;;;;;;5036287;28;20313;-58
2022/06/16 05:30:44;;;;;;;5.70;2.60;;;24.10;99.90;;;;;;5063249;28;20266;-59
2022/06/16 05:33:29;;;;;;;5.50;2.70;;;24.80;99.90;;;;;;5061658;28;20195;-60
2022/06/16 05:36:27;;;;;;;4.80;2.42;;;25.00;99.90;;;;;;5050673;28;20207;-59
2022/06/16 05:39:26;;;;;;;3.83;2.28;;;25.00;99.90;;;;;;5063033;28;20226;-59
2022/06/16 05:42:19;;;;;;;4.47;2.50;;;24.80;99.90;;;;;;5062276;28;20203;-60
2022/06/16 05:45:13;;;;;;;3.65;2.15;;;24.90;99.90;;;;;;5063372;28;20219;-60
2022/06/16 05:48:00;;;;;;;4.13;2.20;;;24.40;99.90;;;;;;5046924;28;20207;-59
2022/06/16 05:50:31;;;;;;;3.25;2.20;;;25.10;99.90;;;;;;5061762;28;20208;-59
2022/06/16 05:52:59;;;;;;;4.45;2.17;;;25.60;99.90;;;;;;5059682;28;20183;-59
2022/06/16 05:55:32;;;;;;;5.50;2.67;;;26.20;99.90;;;;;;5060614;28;20744;-59
2022/06/16 05:58:01;;;;;;;3.55;2.17;;;26.40;99.90;;;;;;5052019;28;20237;-60
2022/06/16 06:00:35;;;;;;;8.38;2.60;;;26.30;99.90;;;;;;5065585;28;20202;-61
2022/06/16 06:03:08;;;;;;;2.72;2.00;;;26.00;99.90;;;;;;5063509;28;20289;-60
2022/06/16 06:05:39;;;;;;;4.20;1.90;;;25.90;99.90;;;;;;5061872;28;20272;-61
2022/06/16 06:16:37;;;;;;;4.38;2.17;;;26.90;99.90;;;;;;5059512;28;20199;-60
2022/06/16 06:19:26;;;;;;;12.02;2.35;;;26.60;99.90;;;;;;5061562;28;20187;-60
2022/06/16 06:21:58;;;;;;;4.90;1.90;;;25.60;99.90;;;;;;5058027;28;20200;-59
2022/06/16 06:24:34;;;;;;;5.40;2.00;;;27.00;99.90;;;;;;5064138;28;20306;-60
2022/06/16 06:27:27;;;;;;;5.10;2.05;;;27.40;99.90;;;;;;5060657;28;20209;-61
2022/06/16 06:30:00;;;;;;;7.32;2.13;;;27.40;99.90;;;;;;5070158;28;20678;-65
2022/06/16 06:32:28;;;;;;;3.50;1.90;;;27.20;99.90;;;;;;5065495;28;20218;-60
2022/06/16 06:34:55;;;;;;;2.95;1.80;;;28.10;99.90;;;;;;5061791;28;20752;-60
2022/06/16 06:37:25;;;;;;;3.40;1.90;;;28.40;99.90;;;;;;5062768;28;20199;-59
2022/06/16 06:39:53;;;;;;;5.68;1.75;;;28.60;94.20;;;;;;5061086;28;20831;-60
2022/06/16 06:42:20;;;;;;;3.55;1.95;;;28.60;94.30;;;;;;5055523;28;20290;-60
2022/06/16 06:44:47;;;;;;;3.45;1.63;;;28.50;99.90;;;;;;5060600;28;20218;-60
2022/06/16 06:47:24;;;;;;;4.15;2.00;;;28.80;99.90;;;;;;5062202;28;20210;-59
2022/06/16 06:49:52;;;;;;;3.42;1.75;;;28.80;99.90;;;;;;5056703;28;20195;-60
2022/06/16 06:52:19;;;;;;;2.72;1.50;;;30.20;99.90;;;;;;5059175;28;20191;-60
2022/06/16 06:54:47;;;;;;;5.80;2.35;;;30.10;99.20;;;;;;5054949;28;20200;-60
2022/06/16 06:57:24;;;;;;;6.75;2.20;;;29.40;98.70;;;;;;5056910;28;20223;-64
2022/06/16 06:59:52;;;;;;;4.85;2.20;;;29.90;98.90;;;;;;5057598;28;22911;-60
2022/06/16 07:02:20;;;;;;;3.72;2.10;;;30.40;98.90;;;;;;5062108;28;20250;-60
2022/06/16 07:04:47;;;;;;;3.28;2.10;;;30.20;97.40;;;;;;5050642;28;20329;-61
2022/06/16 07:07:18;;;;;;;5.43;2.55;;;30.70;97.30;;;;;;5063244;28;20191;-60
2022/06/16 07:09:45;;;;;;;5.22;2.30;;;30.40;96.70;;;;;;5073456;28;20271;-61
2022/06/16 07:12:14;;;;;;;5.32;2.20;;;30.60;96.50;;;;;;5041111;28;20198;-60
2022/06/16 07:14:48;;;;;;;3.38;2.20;;;30.40;96.40;;;;;;5074622;28;20641;-59
2022/06/16 07:17:20;;;;;;;4.68;2.08;;;30.60;95.50;;;;;;5058635;28;20248;-61
2022/06/16 07:19:48;;;;;;;4.47;2.10;;;31.20;95.10;;;;;;5074239;28;21049;-59
2022/06/16 07:22:15;;;;;;;4.05;1.95;;;31.70;95.40;;;;;;5077805;28;20247;-60
2022/06/16 07:24:43;;;;;;;7.63;2.00;;;31.70;94.20;;;;;;5056781;28;20217;-60
2022/06/16 07:27:10;;;;;;;3.40;2.22;;;30.70;93.70;;;;;;5076713;28;20239;-61
2022/06/16 07:29:37;;;;;;;7.35;2.47;;;31.20;93.90;;;;;;5067143;28;20675;-60
2022/06/16 07:32:11;;;;;;;5.18;2.17;;;31.20;93.70;;;;;;5080559;28;20194;-60
2022/06/16 07:34:39;;;;;;;3.50;2.30;;;30.90;90.20;;;;;;5079946;28;20198;-59
2022/06/16 07:37:06;;;;;;;4.82;2.20;;;31.00;93.70;;;;;;5052783;28;20542;-59
2022/06/16 07:39:33;;;;;;;3.65;2.10;;;31.80;77.80;;;;;;5081120;28;20226;-59
2022/06/16 07:42:00;;;;;;;6.30;2.40;;;32.40;93.50;;;;;;5081947;28;20445;-59
2022/06/16 07:44:27;;;;;;;4.25;1.75;;;30.90;91.40;;;;;;5080802;28;20264;-58
2022/06/16 07:46:54;;;;;;;5.57;2.97;;;29.50;91.70;;;;;;5078302;28;20206;-59
2022/06/16 07:49:25;;;;;;;3.83;2.60;;;30.60;85.60;;;;;;5075515;28;20252;-59
2022/06/16 07:51:54;;;;;;;2.75;2.35;;;30.60;92.80;;;;;;5075683;28;20195;-58
2022/06/16 07:54:23;;;;;;;5.88;1.80;;;31.40;92.40;;;;;;5080889;28;20243;-59
2022/06/16 07:57:11;;;;;;;3.00;2.28;;;32.20;91.00;;;;;;5055090;28;21112;-59
2022/06/16 07:59:48;;;;;;;4.82;1.85;;;32.80;90.80;;;;;;5081573;28;20183;-59
2022/06/16 08:02:15;;;;;;;7.20;1.83;;;33.10;90.30;;;;;;5078951;28;20263;-59
2022/06/16 08:04:44;;;;;;;4.20;2.10;;;30.40;87.00;;;;;;5077800;28;21092;-60
2022/06/16 08:07:11;;;;;;;3.65;2.38;;;30.10;88.20;;;;;;5078010;28;20660;-60
2022/06/16 08:09:39;;;;;;;4.28;1.85;;;29.70;87.30;;;;;;5076761;28;20773;-59
2022/06/16 08:12:10;;;;;;;3.53;2.00;;;29.80;89.00;;;;;;5080290;28;20198;-59
2022/06/16 08:14:44;;;;;;;3.30;1.50;;;31.40;89.70;;;;;;5084720;28;20222;-59
2022/06/16 08:17:21;;;;;;;4.13;1.88;;;32.90;90.90;;;;;;5083836;28;20221;-59
2022/06/16 08:19:48;;;;;;;3.28;1.80;;;36.00;89.00;;;;;;5082722;28;20194;-61
2022/06/16 08:22:15;;;;;;;3.83;1.80;;;36.90;82.50;;;;;;5082274;28;20186;-60
2022/06/16 08:24:44;;;;;;;3.90;1.70;;;34.70;79.50;;;;;;5084092;28;20700;-61
2022/06/16 08:27:11;;;;;;;3.40;1.60;;;35.30;81.00;;;;;;5082497;28;20230;-61
2022/06/16 08:29:42;;;;;;;3.25;1.77;;;34.90;81.60;;;;;;5086900;28;20186;-60
2022/06/16 08:32:10;;;;;;;2.30;1.35;;;33.80;78.80;;;;;;5069824;28;20189;-61
2022/06/16 08:34:38;;;;;;;6.95;2.35;;;34.00;81.20;;;;;;5088075;28;20263;-60
2022/06/16 08:37:05;;;;;;;6.53;1.60;;;33.00;82.30;;;;;;5084124;28;20224;-60
2022/06/16 08:39:33;;;;;;;5.28;1.95;;;33.80;59.50;;;;;;5084298;28;20229;-58
2022/06/16 08:42:26;;;;;;;3.58;1.85;;;32.30;78.50;;;;;;5070494;28;20214;-59
2022/06/16 08:45:10;;;;;;;2.95;2.00;;;33.20;79.40;;;;;;5070277;28;20257;-60
2022/06/16 08:47:51;;;;;;;3.78;1.70;;;33.70;78.30;;;;;;5078516;28;20193;-60
2022/06/16 08:50:33;;;;;;;3.75;1.52;;;34.50;73.90;;;;;;5075717;28;20507;-61
2022/06/16 08:53:09;;;;;;;3.28;1.67;;;35.80;77.00;;;;;;5079973;28;20186;-59
2022/06/16 08:55:42;;;;;;;4.65;1.42;;;36.00;93.60;;;;;;5066800;28;20194;-59
2022/06/16 08:58:18;;;;;;;4.85;1.70;;;36.50;75.90;;;;;;5077572;28;20726;-59
2022/06/16 09:00:49;;;;;;;2.47;1.42;;;34.80;67.40;;;;;;5080212;28;20534;-59
2022/06/16 09:03:34;;;;;;;5.05;1.30;;;33.80;64.90;;;;;;5064508;28;20225;-60
2022/06/16 09:06:14;;;;;;;2.75;1.58;;;33.20;65.80;;;;;;5076132;28;20225;-59
2022/06/16 09:08:52;;;;;;;4.30;1.50;;;32.40;51.40;;;;;;5080602;28;20221;-59
2022/06/16 09:11:37;;;;;;;4.07;1.33;;;31.90;48.30;;;;;;5079877;28;20191;-60
2022/06/16 09:15:10;;;;;;;2.78;1.20;;;32.50;64.80;;;;;;5060639;28;20248;-59
2022/06/16 09:17:33;;;;;;;2.78;1.42;;;33.30;65.40;;;;;;5081732;28;20193;-60
2022/06/16 09:20:28;;;;;;;3.53;1.65;;;35.60;46.90;;;;;;5081058;28;20197;-60
2022/06/16 09:23:12;;;;;;;2.33;1.30;;;36.50;63.40;;;;;;5080419;28;20221;-59
2022/06/16 09:25:51;;;;;;;3.08;1.55;;;34.00;44.10;;;;;;5079873;28;20601;-60
2022/06/16 09:28:28;;;;;;;2.67;1.05;;;33.90;42.70;;;;;;5079636;28;20246;-60
2022/06/16 09:30:57;;;;;;;2.78;1.15;;;33.30;59.10;;;;;;5082617;28;20190;-60
2022/06/16 09:33:33;;;;;;;3.05;1.20;;;34.40;58.60;;;;;;5079641;28;20229;-59
2022/06/16 09:36:10;;;;;;;2.75;1.10;;;34.60;45.00;;;;;;5079310;28;20193;-59
2022/06/16 09:38:50;;;;;;;2.28;1.13;;;34.50;40.50;;;;;;5076356;28;20257;-60
2022/06/16 09:44:32;;;;;;;4.75;1.45;;;34.60;54.30;;;;;;5077109;28;20221;-59
2022/06/16 09:47:05;;;;;;;2.95;1.50;;;32.40;52.40;;;;;;5076737;28;20233;-59
2022/06/16 09:49:46;;;;;;;3.58;1.20;;;33.70;41.90;;;;;;5068199;28;20190;-62
2022/06/16 09:52:33;;;;;;;2.67;1.20;;;33.90;55.00;;;;;;5079143;28;20213;-59
2022/06/16 09:55:23;;;;;;;2.85;1.10;;;33.70;49.40;;;;;;5079516;28;20208;-60
2022/06/16 09:57:56;;;;;;;3.17;1.48;;;32.70;49.10;;;;;;5076800;28;20209;-60
2022/06/16 10:00:26;;;;;;;2.53;1.02;;;32.80;43.10;;;;;;5079301;28;20251;-60
2022/06/16 10:02:58;;;;;;;2.22;1.20;;;34.30;1.00;;;;;;5083525;28;20243;-60
2022/06/16 10:05:41;;;;;;;4.22;1.52;;;33.90;99.90;;;;;;5081301;28;20619;-60
2022/06/16 10:08:14;;;;;;;3.85;1.27;;;34.10;99.90;;;;;;5081208;28;20252;-61
2022/06/16 10:10:52;;;;;;;2.30;1.00;;;34.20;50.70;;;;;;5081909;28;20225;-60
2022/06/16 10:13:36;;;;;;;5.28;1.55;;;32.20;99.90;;;;;;5069267;28;20198;-60
2022/06/16 10:16:10;;;;;;;2.30;1.10;;;31.90;45.50;;;;;;5083159;28;20620;-60
2022/06/16 10:18:38;;;;;;;2.30;1.13;;;31.80;51.30;;;;;;5080192;28;20208;-59
2022/06/16 10:21:07;;;;;;;3.10;1.60;;;33.20;47.90;;;;;;5066387;28;20251;-61
2022/06/16 10:23:51;;;;;;;4.18;1.50;;;33.50;47.50;;;;;;5081038;28;20195;-61
2022/06/16 10:26:19;;;;;;;2.45;1.27;;;35.30;41.50;;;;;;5077217;28;20214;-60
2022/06/16 10:28:48;;;;;;;2.70;1.60;;;35.30;49.80;;;;;;5077633;28;20201;-60
2022/06/16 10:31:40;;;;;;;2.05;1.40;;;34.80;33.40;;;;;;5059114;28;20199;-61
2022/06/16 10:34:19;;;;;;;19.90;8.48;;;35.20;43.90;;;;;;5067992;28;20477;-61
2022/06/16 10:36:55;;;;;;;33.97;12.85;;;35.00;46.70;;;;;;5081559;28;20198;-60
2022/06/16 10:39:46;;;;;;;41.90;17.40;;;33.90;99.90;;;;;;5082206;28;20209;-61
2022/06/16 10:42:21;;;;;;;85.82;33.88;;;32.40;99.90;;;;;;5081634;28;20207;-61
2022/06/16 10:45:19;;;;;;;100.45;40.20;;;31.00;1.00;;;;;;5080530;28;20222;-60
2022/06/16 10:48:00;;;;;;;24.23;10.15;;;30.90;1.00;;;;;;5059768;28;20682;-60
2022/06/16 10:50:36;;;;;;;45.92;19.55;;;30.20;1.00;;;;;;5079722;28;20207;-60
2022/06/16 10:53:32;;;;;;;24.92;9.85;;;30.20;1.00;;;;;;5063967;28;20220;-59
2022/06/16 10:56:16;;;;;;;14.85;6.65;;;30.00;47.20;;;;;;5061330;28;20303;-60
2022/06/16 10:59:02;;;;;;;4.75;1.20;;;29.70;47.10;;;;;;5064236;28;20198;-60
2022/06/16 11:01:46;;;;;;;4.80;2.80;;;29.80;47.10;;;;;;5063104;28;20191;-60
2022/06/16 11:04:19;;;;;;;5.47;1.80;;;30.00;47.90;;;;;;5077491;28;20469;-59
2022/06/16 11:06:49;;;;;;;4.57;2.25;;;30.20;48.20;;;;;;5082022;28;20202;-60
2022/06/16 11:09:23;;;;;;;4.13;2.17;;;30.30;31.20;;;;;;5077631;28;20580;-60
2022/06/16 11:12:02;;;;;;;4.35;1.67;;;30.20;47.90;;;;;;5063073;28;20194;-60
2022/06/16 11:14:39;;;;;;;4.45;2.30;;;28.40;11.80;;;;;;5078095;28;20199;-60
2022/06/16 11:17:37;;;;;;;4.22;2.35;;;29.70;1.00;;;;;;5077680;28;20200;-60
2022/06/16 11:20:31;;;;;;;6.53;1.90;;;28.80;35.00;;;;;;5074773;28;21570;-60
2022/06/16 11:22:58;;;;;;;2.05;1.25;;;29.40;1.00;;;;;;5068354;28;20211;-60
2022/06/16 11:25:32;;;;;;;2.28;1.30;;;30.70;99.90;;;;;;5065244;28;20226;-60
2022/06/16 11:28:04;;;;;;;2.63;1.55;;;32.50;1.00;;;;;;5068279;28;20198;-60
2022/06/16 11:30:36;;;;;;;3.17;1.48;;;32.50;1.00;;;;;;5066022;28;20214;-60
2022/06/16 11:33:06;;;;;;;4.13;1.63;;;32.00;48.00;;;;;;5062048;28;20681;-60
2022/06/16 11:35:44;;;;;;;2.85;1.42;;;30.80;48.50;;;;;;5076513;28;20195;-59
2022/06/16 11:38:23;;;;;;;3.33;1.40;;;30.10;35.10;;;;;;5078148;28;20209;-60
2022/06/16 11:41:08;;;;;;;4.80;1.55;;;30.20;50.90;;;;;;5064604;28;20187;-60
2022/06/16 11:44:12;;;;;;;3.22;1.83;;;30.20;49.50;;;;;;5076551;28;20198;-60
2022/06/16 11:47:19;;;;;;;5.00;2.00;;;29.90;49.10;;;;;;5063696;28;20756;-59
2022/06/16 11:50:25;;;;;;;4.70;1.52;;;30.90;49.90;;;;;;5066597;28;20203;-59
2022/06/16 11:53:17;;;;;;;3.05;1.58;;;31.30;49.90;;;;;;5080690;28;20339;-59
2022/06/16 11:56:23;;;;;;;4.53;1.50;;;30.70;51.10;;;;;;5061497;28;20186;-60
2022/06/16 11:59:04;;;;;;;4.30;1.58;;;30.50;49.40;;;;;;5063180;28;20203;-60
2022/06/16 12:01:43;;;;;;;3.72;1.40;;;30.90;51.70;;;;;;5067005;28;20245;-59
2022/06/16 12:04:25;;;;;;;3.25;1.58;;;30.20;52.00;;;;;;5078616;28;20191;-60
2022/06/16 12:07:28;;;;;;;2.63;1.48;;;30.10;35.00;;;;;;5064454;28;20269;-60
2022/06/16 12:10:27;;;;;;;5.28;1.75;;;29.90;52.40;;;;;;5070845;28;20369;-60
2022/06/16 12:13:17;;;;;;;3.97;1.73;;;30.80;52.00;;;;;;5082456;28;20202;-60
2022/06/16 12:15:59;;;;;;;4.25;1.70;;;29.90;50.40;;;;;;4999156;28;20554;-61
2022/06/16 12:18:52;;;;;;;2.33;1.52;;;28.60;51.40;;;;;;5063108;28;20665;-59
2022/06/16 12:21:31;;;;;;;2.72;1.30;;;27.80;53.30;;;;;;5079071;28;20213;-59
2022/06/16 12:24:14;;;;;;;3.47;1.90;;;27.80;53.80;;;;;;5060727;28;20202;-60
2022/06/16 12:27:11;;;;;;;4.28;1.90;;;28.30;38.90;;;;;;5059182;28;20216;-60
2022/06/16 12:30:00;;;;;;;2.78;1.80;;;27.80;99.90;;;;;;5031141;28;20191;-60
2022/06/16 12:32:59;;;;;;;4.47;1.80;;;27.40;1.00;;;;;;5078043;28;20187;-60
2022/06/16 12:35:41;;;;;;;4.50;1.90;;;27.80;99.90;;;;;;5038324;28;20297;-63
2022/06/16 12:38:12;;;;;;;2.67;1.90;;;27.90;90.40;;;;;;5071497;28;20433;-62
2022/06/16 12:40:51;;;;;;;3.67;1.58;;;27.80;56.50;;;;;;5043998;28;20210;-61
2022/06/16 12:43:24;;;;;;;4.72;1.80;;;27.80;55.50;;;;;;5057363;28;20570;-61
2022/06/16 12:46:05;;;;;;;7.70;1.73;;;26.80;99.90;;;;;;5079122;28;20210;-61
2022/06/16 12:48:42;;;;;;;5.45;1.80;;;26.80;99.90;;;;;;5080984;28;20198;-62
2022/06/16 12:51:15;;;;;;;7.30;1.60;;;26.80;41.80;;;;;;5069172;28;20248;-62
2022/06/16 12:53:53;;;;;;;8.32;2.03;;;26.50;58.50;;;;;;5067470;28;20212;-62
2022/06/16 12:56:29;;;;;;;4.18;1.75;;;26.10;59.50;;;;;;5080624;28;20199;-62
2022/06/16 12:59:27;;;;;;;3.70;1.45;;;26.10;59.70;;;;;;5082843;28;20202;-62
2022/06/16 13:01:58;;;;;;;2.30;1.85;;;26.40;1.00;;;;;;5082206;28;20214;-62
2022/06/16 13:04:29;;;;;;;4.60;1.80;;;26.40;61.90;;;;;;5067064;28;20293;-61
2022/06/16 13:06:59;;;;;;;2.60;1.73;;;25.20;1.00;;;;;;5079107;28;20565;-62
2022/06/16 13:09:27;;;;;;;4.85;1.90;;;24.70;99.90;;;;;;5081344;28;20226;-62
2022/06/16 13:12:18;;;;;;;4.00;1.70;;;25.30;47.90;;;;;;5081150;28;20279;-62
2022/06/16 13:14:57;;;;;;;4.28;1.75;;;25.20;99.90;;;;;;5066139;28;20561;-62
2022/06/16 13:17:29;;;;;;;4.00;1.98;;;25.40;63.20;;;;;;5080130;28;20908;-62
2022/06/16 13:20:12;;;;;;;4.38;1.83;;;25.60;62.80;;;;;;5065165;28;20198;-61
2022/06/16 13:23:15;;;;;;;4.68;2.03;;;26.20;91.70;;;;;;5066221;28;20198;-62
2022/06/16 13:25:50;;;;;;;2.42;1.73;;;26.10;50.40;;;;;;5063935;28;20230;-61
2022/06/16 13:28:33;;;;;;;3.95;1.90;;;25.70;46.50;;;;;;5078875;28;20190;-61
2022/06/16 13:31:10;;;;;;;2.75;2.00;;;25.60;65.50;;;;;;5061140;28;20293;-62
2022/06/16 13:33:55;;;;;;;2.78;1.90;;;25.50;64.70;;;;;;5078292;28;20201;-62
2022/06/16 13:36:31;;;;;;;3.08;1.80;;;25.50;48.80;;;;;;5063586;28;20194;-61
2022/06/16 13:38:59;;;;;;;5.25;2.00;;;25.70;48.20;;;;;;5067134;28;20717;-61
2022/06/16 13:41:40;;;;;;;5.97;1.98;;;25.80;99.90;;;;;;5068668;28;20264;-60
2022/06/16 13:44:18;;;;;;;3.65;1.70;;;25.70;51.20;;;;;;5081441;28;20602;-63
2022/06/16 13:46:57;;;;;;;3.40;1.73;;;25.50;99.90;;;;;;5080646;28;20217;-61
2022/06/16 13:49:35;;;;;;;3.65;1.95;;;25.40;58.70;;;;;;5075497;28;20584;-61
2022/06/16 13:52:16;;;;;;;3.80;1.60;;;25.30;52.20;;;;;;5064948;28;20683;-62
2022/06/16 13:54:44;;;;;;;5.07;1.67;;;25.20;99.90;;;;;;5080725;28;20714;-62
2022/06/16 13:57:22;;;;;;;4.07;1.83;;;25.20;52.60;;;;;;5066858;28;20570;-61
2022/06/16 13:59:58;;;;;;;2.33;1.50;;;25.20;55.70;;;;;;5080981;28;20211;-61
2022/06/16 14:02:28;;;;;;;4.18;1.60;;;25.50;72.80;;;;;;5082581;28;20538;-62